createdAt,value
2018-06-22T00:02:09.872Z,66.59
2018-06-22T00:04:38.324Z,67.35
2018-06-22T00:07:06.697Z,67.11
2018-06-22T00:09:35.068Z,67.62
2018-06-22T00:12:03.482Z,67.50
2018-06-22T00:14:31.859Z,67.23
2018-06-22T00:17:00.296Z,67.43
2018-06-22T00:19:28.673Z,67.18
2018-06-22T00:21:57.061Z,67.21
2018-06-22T00:24:25.540Z,67.48
2018-06-22T00:26:54.522Z,67.05
2018-06-22T00:29:22.960Z,67.23
2018-06-22T00:31:51.610Z,67.02
2018-06-22T00:34:20.097Z,66.99
2018-06-22T00:36:48.522Z,67.23
2018-06-22T00:39:16.935Z,67.13
2018-06-22T00:41:45.357Z,67.07
2018-06-22T00:44:13.838Z,66.71
2018-06-22T00:46:42.424Z,67.02
2018-06-22T00:49:10.812Z,66.68
2018-06-22T00:51:39.282Z,66.56
2018-06-22T00:54:16.450Z,67.11
2018-06-22T00:56:45.309Z,67.54
2018-06-22T00:59:14.327Z,67.47
2018-06-22T01:01:42.716Z,67.15
2018-06-22T01:04:11.733Z,67.46
2018-06-22T01:06:40.526Z,67.14
2018-06-22T01:09:12.092Z,67.54
2018-06-22T01:11:40.547Z,68.54
2018-06-22T01:14:09.417Z,67.96
2018-06-22T01:16:38.231Z,67.07
2018-06-22T01:19:07.092Z,68.48
2018-06-22T01:21:35.520Z,68.31
2018-06-22T01:24:03.936Z,67.55
2018-06-22T01:26:32.337Z,67.92
2018-06-22T01:29:06.707Z,67.50
2018-06-22T01:31:35.254Z,68.13
2018-06-22T01:34:03.681Z,67.47
2018-06-22T01:36:32.064Z,67.70
2018-06-22T01:39:00.484Z,68.66
2018-06-22T01:41:28.885Z,68.71
2018-06-22T01:43:57.538Z,67.87
2018-06-22T01:46:25.950Z,68.63
2018-06-22T01:48:54.640Z,68.38
2018-06-22T01:51:23.023Z,68.81
2018-06-22T01:53:51.450Z,68.43
2018-06-22T01:56:20.895Z,68.17
2018-06-22T01:58:49.361Z,69.61
2018-06-22T02:01:18.557Z,68.37
2018-06-22T02:03:46.997Z,69.12
2018-06-22T02:06:15.383Z,68.56
2018-06-22T02:08:43.945Z,68.92
2018-06-22T02:11:12.380Z,69.26
2018-06-22T02:13:40.745Z,68.75
2018-06-22T02:16:09.312Z,69.11
2018-06-22T02:18:37.885Z,68.75
2018-06-22T02:21:06.360Z,68.17
2018-06-22T02:23:34.781Z,68.66
2018-06-22T02:26:03.220Z,68.68
2018-06-22T02:28:31.648Z,67.89
2018-06-22T02:31:00.060Z,68.42
2018-06-22T02:33:28.503Z,68.92
2018-06-22T02:35:56.896Z,68.60
2018-06-22T02:38:25.299Z,68.89
2018-06-22T02:40:53.812Z,68.66
2018-06-22T02:43:22.189Z,69.00
2018-06-22T02:45:50.829Z,69.41
2018-06-22T02:48:20.625Z,68.66
2018-06-22T02:50:49.413Z,69.70
2018-06-22T02:53:17.780Z,69.03
2018-06-22T02:55:47.256Z,69.78
2018-06-22T02:58:15.653Z,69.97
2018-06-22T03:00:44.648Z,69.96
2018-06-22T03:03:13.078Z,70.12
2018-06-22T03:05:41.507Z,69.91
2018-06-22T03:08:09.924Z,70.00
2018-06-22T03:10:38.355Z,70.65
2018-06-22T03:13:07.316Z,70.42
2018-06-22T03:15:35.973Z,70.48
2018-06-22T03:18:04.947Z,70.12
2018-06-22T03:20:33.341Z,71.08
2018-06-22T03:23:01.752Z,70.54
2018-06-22T03:25:30.403Z,71.16
2018-06-22T03:27:58.841Z,71.32
2018-06-22T03:30:27.223Z,70.38
2018-06-22T03:32:55.683Z,71.19
2018-06-22T03:35:24.100Z,71.23
2018-06-22T03:37:53.144Z,70.52
2018-06-22T03:40:22.061Z,70.29
2018-06-22T03:42:50.514Z,70.10
2018-06-22T03:45:18.945Z,70.15
2018-06-22T03:47:47.381Z,70.93
2018-06-22T03:50:15.817Z,70.34
2018-06-22T03:52:44.250Z,70.27
2018-06-22T03:55:12.691Z,70.20
2018-06-22T03:57:41.191Z,70.58
2018-06-22T04:00:10.453Z,70.85
2018-06-22T04:02:38.944Z,70.55
2018-06-22T04:05:07.373Z,70.34
2018-06-22T04:07:35.790Z,70.53
2018-06-22T04:10:04.254Z,70.86
2018-06-22T04:12:32.660Z,71.46
2018-06-22T04:15:01.104Z,70.71
2018-06-22T04:17:30.688Z,71.00
2018-06-22T04:19:59.120Z,70.94
2018-06-22T04:22:27.577Z,70.47
2018-06-22T04:24:55.992Z,71.07
2018-06-22T04:27:24.726Z,70.87
2018-06-22T04:29:53.352Z,70.62
2018-06-22T04:32:23.025Z,70.50
2018-06-22T04:34:51.405Z,70.43
2018-06-22T04:37:20.230Z,70.41
2018-06-22T04:39:48.664Z,70.31
2018-06-22T04:42:17.072Z,70.38
2018-06-22T04:44:45.463Z,69.83
2018-06-22T04:47:13.905Z,69.63
2018-06-22T04:49:42.388Z,70.05
2018-06-22T04:52:10.776Z,69.61
2018-06-22T04:54:39.192Z,69.71
2018-06-22T04:57:07.611Z,70.13
2018-06-22T04:59:36.100Z,69.92
2018-06-22T05:02:04.535Z,69.97
2018-06-22T05:04:32.985Z,69.76
2018-06-22T05:07:01.445Z,69.65
2018-06-22T05:09:29.832Z,70.06
2018-06-22T05:11:58.220Z,70.52
2018-06-22T05:14:26.774Z,70.07
2018-06-22T05:16:55.190Z,70.06
2018-06-22T05:19:23.626Z,70.45
2018-06-22T05:21:52.022Z,70.31
2018-06-22T05:24:20.419Z,70.87
2018-06-22T05:26:48.946Z,71.07
2018-06-22T05:29:17.363Z,71.11
2018-06-22T05:31:45.760Z,71.32
2018-06-22T05:34:14.124Z,71.33
2018-06-22T05:36:42.528Z,70.72
2018-06-22T05:39:11.954Z,71.63
2018-06-22T05:41:40.500Z,70.82
2018-06-22T05:44:09.597Z,70.70
2018-06-22T05:46:37.992Z,70.90
2018-06-22T05:49:06.469Z,71.06
2018-06-22T05:51:35.433Z,70.66
2018-06-22T05:54:03.995Z,70.58
2018-06-22T05:56:32.413Z,70.53
2018-06-22T05:59:00.823Z,70.76
2018-06-22T06:01:29.325Z,70.57
2018-06-22T06:03:57.722Z,70.70
2018-06-22T06:06:26.289Z,71.37
2018-06-22T06:08:54.708Z,70.19
2018-06-22T06:11:23.217Z,70.25
2018-06-22T06:13:51.652Z,70.22
2018-06-22T06:16:20.165Z,71.00
2018-06-22T06:18:48.663Z,70.50
2018-06-22T06:21:17.092Z,70.37
2018-06-22T06:23:45.501Z,71.04
2018-06-22T06:26:13.888Z,69.74
2018-06-22T06:28:42.540Z,69.66
2018-06-22T06:31:11.340Z,70.26
2018-06-22T06:33:39.761Z,70.02
2018-06-22T06:36:08.230Z,70.68
2018-06-22T06:38:36.641Z,70.36
2018-06-22T06:41:05.028Z,69.58
2018-06-22T06:43:33.439Z,70.36
2018-06-22T06:46:01.871Z,70.41
2018-06-22T06:48:30.294Z,70.42
2018-06-22T06:50:58.741Z,70.74
2018-06-22T06:53:27.244Z,70.86
2018-06-22T06:55:55.706Z,70.21
2018-06-22T06:58:24.096Z,70.87
2018-06-22T07:00:52.596Z,69.83
2018-06-22T07:03:20.995Z,70.53
2018-06-22T07:05:49.399Z,70.60
2018-06-22T07:08:17.800Z,69.87
2018-06-22T07:10:46.440Z,71.06
2018-06-22T07:13:14.896Z,71.11
2018-06-22T07:15:43.327Z,69.09
2018-06-22T07:18:11.707Z,69.83
2018-06-22T07:20:40.133Z,69.39
2018-06-22T07:23:09.293Z,69.20
2018-06-22T07:25:38.555Z,69.74
2018-06-22T07:28:07.081Z,69.06
2018-06-22T07:30:35.536Z,70.13
2018-06-22T07:33:03.953Z,69.09
2018-06-22T07:35:32.329Z,69.61
2018-06-22T07:38:00.804Z,69.28
2018-06-22T07:40:29.590Z,68.63
2018-06-22T07:42:58.021Z,68.21
2018-06-22T07:45:26.445Z,69.64
2018-06-22T07:47:54.856Z,69.40
2018-06-22T07:50:23.307Z,68.81
2018-06-22T07:52:52.348Z,70.57
2018-06-22T07:55:20.804Z,69.71
2018-06-22T07:57:49.245Z,69.31
2018-06-22T08:00:17.597Z,69.91
2018-06-22T08:02:46.922Z,70.03
2018-06-22T08:05:15.313Z,69.74
2018-06-22T08:07:43.716Z,70.59
2018-06-22T08:10:12.161Z,68.58
2018-06-22T08:12:40.657Z,69.77
2018-06-22T08:15:09.116Z,70.61
2018-06-22T08:17:37.578Z,70.48
2018-06-22T08:20:05.992Z,69.90
2018-06-22T08:22:34.395Z,71.32
2018-06-22T08:25:02.870Z,71.08
2018-06-22T08:27:31.404Z,71.66
2018-06-22T08:29:59.811Z,72.68
2018-06-22T08:32:28.383Z,72.45
2018-06-22T08:34:56.934Z,73.10
2018-06-22T08:37:25.299Z,73.42
2018-06-22T08:39:53.709Z,72.62
2018-06-22T08:42:22.230Z,73.00
2018-06-22T08:44:50.652Z,72.72
2018-06-22T08:47:19.101Z,71.85
2018-06-22T08:49:47.489Z,71.73
2018-06-22T08:52:15.907Z,71.56
2018-06-22T08:54:44.376Z,71.50
2018-06-22T08:57:12.866Z,72.17
2018-06-22T08:59:41.287Z,72.86
2018-06-22T09:02:09.815Z,73.03
2018-06-22T09:04:38.251Z,73.00
2018-06-22T09:07:06.702Z,75.22
2018-06-22T09:09:35.136Z,73.59
2018-06-22T09:12:03.589Z,73.65
2018-06-22T09:14:32.131Z,72.74
2018-06-22T09:17:00.562Z,74.54
2018-06-22T09:19:28.971Z,73.30
2018-06-22T09:21:57.445Z,73.23
2018-06-22T09:24:25.832Z,74.08
2018-06-22T09:26:54.252Z,75.20
2018-06-22T09:29:22.670Z,76.01
2018-06-22T09:31:51.109Z,74.32
2018-06-22T09:34:19.545Z,73.36
2018-06-22T09:36:48.023Z,74.77
2018-06-22T09:39:16.405Z,75.18
2018-06-22T09:41:44.792Z,76.60
2018-06-22T09:44:24.409Z,76.59
2018-06-22T09:46:52.824Z,76.40
2018-06-22T09:49:21.265Z,78.00
2018-06-22T09:51:50.582Z,79.13
2018-06-22T09:54:18.992Z,75.63
2018-06-22T09:56:48.065Z,77.28
2018-06-22T09:59:16.701Z,76.66
2018-06-22T10:01:45.640Z,76.19
2018-06-22T10:04:14.151Z,76.42
2018-06-22T10:06:42.613Z,76.63
2018-06-22T10:09:12.709Z,74.65
2018-06-22T10:11:41.276Z,73.77
2018-06-22T10:14:10.082Z,74.81
2018-06-22T10:16:38.542Z,74.87
2018-06-22T10:19:07.009Z,74.71
2018-06-22T10:21:35.605Z,71.29
2018-06-22T10:24:04.067Z,72.39
2018-06-22T10:26:32.507Z,72.22
2018-06-22T10:29:01.066Z,72.66
2018-06-22T10:31:29.475Z,72.43
2018-06-22T10:33:58.000Z,72.81
2018-06-22T10:36:26.630Z,71.38
2018-06-22T10:38:55.959Z,72.43
2018-06-22T10:41:24.433Z,72.20
2018-06-22T10:43:52.944Z,72.41
2018-06-22T10:46:21.408Z,70.65
2018-06-22T10:48:49.825Z,70.73
2018-06-22T10:51:18.868Z,70.22
2018-06-22T10:53:47.313Z,69.48
2018-06-22T10:56:15.767Z,71.58
2018-06-22T10:58:44.810Z,71.54
2018-06-22T11:01:13.301Z,71.03
2018-06-22T11:03:42.265Z,70.22
2018-06-22T11:06:10.668Z,70.70
2018-06-22T11:08:39.190Z,69.95
2018-06-22T11:11:07.635Z,69.16
2018-06-22T11:13:36.149Z,69.16
2018-06-22T11:16:04.605Z,68.37
2018-06-22T11:18:33.037Z,68.15
2018-06-22T11:21:01.475Z,68.90
2018-06-22T11:23:29.897Z,69.65
2018-06-22T11:25:59.225Z,70.77
2018-06-22T11:28:28.451Z,71.20
2018-06-22T11:30:56.990Z,73.74
2018-06-22T11:33:25.343Z,73.35
2018-06-22T11:35:54.485Z,73.36
2018-06-22T11:38:22.807Z,75.75
2018-06-22T11:40:51.191Z,76.93
2018-06-22T11:43:19.633Z,76.14
2018-06-22T11:45:48.061Z,76.93
2018-06-22T11:48:16.492Z,75.96
2018-06-22T11:50:44.928Z,78.14
2018-06-22T11:53:13.399Z,76.05
2018-06-22T11:55:41.861Z,73.49
2018-06-22T11:58:10.311Z,74.42
2018-06-22T12:00:38.879Z,73.33
2018-06-22T12:03:07.596Z,68.80
2018-06-22T12:05:36.047Z,68.09
2018-06-22T12:08:04.462Z,63.47
2018-06-22T12:10:32.907Z,66.42
2018-06-22T12:13:01.332Z,66.20
2018-06-22T12:15:29.752Z,66.61
2018-06-22T12:17:58.466Z,66.50
2018-06-22T12:20:26.862Z,65.64
2018-06-22T12:22:55.292Z,70.73
2018-06-22T12:25:24.463Z,75.10
2018-06-22T12:27:52.920Z,78.03
2018-06-22T12:30:21.415Z,78.42
2018-06-22T12:32:50.045Z,80.80
2018-06-22T12:35:18.521Z,78.99
2018-06-22T12:37:46.961Z,78.79
2018-06-22T12:40:15.449Z,80.36
2018-06-22T12:42:43.881Z,80.13
2018-06-22T12:45:12.371Z,82.26
2018-06-22T12:47:41.782Z,80.19
2018-06-22T12:50:10.179Z,82.33
2018-06-22T12:52:38.813Z,79.91
2018-06-22T12:55:07.349Z,76.82
2018-06-22T12:57:36.447Z,72.88
2018-06-22T13:00:05.818Z,72.36
2018-06-22T13:02:34.245Z,70.18
2018-06-22T13:05:03.192Z,72.39
2018-06-22T13:07:31.600Z,69.88
2018-06-22T13:10:00.085Z,71.78
2018-06-22T13:12:28.492Z,69.31
2018-06-22T13:14:56.936Z,68.69
2018-06-22T13:17:25.389Z,65.25
2018-06-22T13:19:53.880Z,67.90
2018-06-22T13:22:22.558Z,68.90
2018-06-22T13:24:50.999Z,67.19
2018-06-22T13:27:19.520Z,65.38
2018-06-22T13:29:47.948Z,64.00
2018-06-22T13:32:16.407Z,63.63
2018-06-22T13:34:44.820Z,61.57
2018-06-22T13:37:13.274Z,60.34
2018-06-22T13:39:41.812Z,59.09
2018-06-22T13:42:10.233Z,59.96
2018-06-22T13:44:38.892Z,59.88
2018-06-22T13:47:07.348Z,58.38
2018-06-22T13:49:35.805Z,57.51
2018-06-22T13:52:04.228Z,54.50
2018-06-22T13:54:32.695Z,55.66
2018-06-22T13:57:01.163Z,52.24
2018-06-22T13:59:29.549Z,52.53
2018-06-22T14:01:58.013Z,53.39
2018-06-22T14:04:31.732Z,52.72
2018-06-22T14:07:00.176Z,54.68
2018-06-22T14:09:28.650Z,56.18
2018-06-22T14:11:57.167Z,56.65
2018-06-22T14:14:25.588Z,58.47
2018-06-22T14:16:54.265Z,59.41
2018-06-22T14:19:22.775Z,59.11
2018-06-22T14:21:51.143Z,58.46
2018-06-22T14:24:19.562Z,58.33
2018-06-22T14:26:48.280Z,57.36
2018-06-22T14:29:16.691Z,57.56
2018-06-22T14:31:45.830Z,56.41
2018-06-22T14:34:16.320Z,57.44
2018-06-22T14:36:44.942Z,57.11
2018-06-22T14:39:13.366Z,59.25
2018-06-22T14:41:41.883Z,57.42
2018-06-22T14:44:10.294Z,58.13
2018-06-22T14:46:38.794Z,57.85
2018-06-22T14:49:07.485Z,57.20
2018-06-22T14:51:35.971Z,56.16
2018-06-22T14:54:09.692Z,57.35
2018-06-22T14:56:43.626Z,56.03
2018-06-22T14:59:17.241Z,57.33
2018-06-22T15:01:51.451Z,55.51
2018-06-22T15:04:25.154Z,53.25
2018-06-22T15:06:58.786Z,54.44
2018-06-22T15:09:27.804Z,53.79
2018-06-22T15:11:56.842Z,55.10
2018-06-22T15:14:25.262Z,54.97
2018-06-22T15:16:53.704Z,54.16
2018-06-22T15:19:22.291Z,56.10
2018-06-22T15:21:51.277Z,55.15
2018-06-22T15:24:19.676Z,56.20
2018-06-22T15:26:48.117Z,56.20
2018-06-22T15:29:16.544Z,55.85
2018-06-22T15:31:45.199Z,55.53
2018-06-22T15:34:18.812Z,54.96
2018-06-22T15:36:52.737Z,53.85
2018-06-22T15:40:24.055Z,51.99
2018-06-22T15:42:57.937Z,52.84
2018-06-22T15:45:30.409Z,52.05
2018-06-22T15:48:04.720Z,50.94
2018-06-22T15:50:39.553Z,52.19
2018-06-22T15:53:13.172Z,52.80
2018-06-22T15:55:44.812Z,53.90
2018-06-22T15:58:13.300Z,55.34
2018-06-22T16:00:41.752Z,56.44
2018-06-22T16:03:15.264Z,55.45
2018-06-22T16:05:43.673Z,55.67
2018-06-22T16:08:12.122Z,56.51
2018-06-22T16:10:40.980Z,57.14
2018-06-22T16:13:14.728Z,58.24
2018-06-22T16:16:47.958Z,57.69
2018-06-22T16:19:22.069Z,56.79
2018-06-22T16:21:55.700Z,56.47
2018-06-22T16:24:29.441Z,56.57
2018-06-22T16:27:03.150Z,54.56
2018-06-22T16:29:31.552Z,54.98
2018-06-22T16:31:59.974Z,55.46
2018-06-22T16:34:28.428Z,54.69
2018-06-22T16:36:56.852Z,54.03
2018-06-22T16:39:25.298Z,55.06
2018-06-22T16:41:53.821Z,54.37
2018-06-22T16:44:22.260Z,54.34
2018-06-22T16:46:50.647Z,54.50
2018-06-22T16:49:19.081Z,56.38
2018-06-22T16:51:47.643Z,55.83
2018-06-22T16:54:16.154Z,55.60
2018-06-22T16:56:44.693Z,54.74
2018-06-22T16:59:13.143Z,55.92
2018-06-22T17:01:41.548Z,55.13
2018-06-22T17:04:14.079Z,57.15
2018-06-22T17:06:47.720Z,56.58
2018-06-22T17:09:21.547Z,58.28
2018-06-22T17:11:55.282Z,57.67
2018-06-22T17:14:28.910Z,59.63
2018-06-22T17:17:02.664Z,57.68
2018-06-22T17:19:31.155Z,56.74
2018-06-22T17:21:59.576Z,56.12
2018-06-22T17:24:28.210Z,53.82
2018-06-22T17:26:56.549Z,53.89
2018-06-22T17:29:24.995Z,53.83
2018-06-22T17:31:53.425Z,54.72
2018-06-22T17:34:21.841Z,54.12
2018-06-22T17:36:50.382Z,55.21
2018-06-22T17:39:18.870Z,54.94
2018-06-22T17:41:47.456Z,55.31
2018-06-22T17:44:15.931Z,55.83
2018-06-22T17:46:44.412Z,56.12
2018-06-22T17:49:12.872Z,55.70
2018-06-22T17:51:41.260Z,56.47
2018-06-22T17:54:09.720Z,56.75
2018-06-22T17:56:38.133Z,56.86
2018-06-22T17:59:12.543Z,57.70
2018-06-22T18:01:46.486Z,56.64
2018-06-22T18:05:23.415Z,58.03
2018-06-22T18:07:51.901Z,57.99
2018-06-22T18:10:25.567Z,57.07
2018-06-22T18:12:56.451Z,55.17
2018-06-22T18:15:24.685Z,56.44
2018-06-22T18:17:53.222Z,56.48
2018-06-22T18:20:21.730Z,57.13
2018-06-22T18:22:50.498Z,56.42
2018-06-22T18:25:19.771Z,57.14
2018-06-22T18:27:48.884Z,57.60
2018-06-22T18:30:17.684Z,57.67
2018-06-22T18:32:46.139Z,59.04
2018-06-22T18:35:15.692Z,59.16
2018-06-22T18:37:44.197Z,61.26
2018-06-22T18:40:12.935Z,60.86
2018-06-22T18:42:41.383Z,60.46
2018-06-22T18:45:11.217Z,60.54
2018-06-22T18:47:40.220Z,61.21
2018-06-22T18:50:08.796Z,61.69
2018-06-22T18:52:42.390Z,62.09
2018-06-22T18:55:15.917Z,61.44
2018-06-22T18:57:49.681Z,60.90
2018-06-22T19:00:23.609Z,60.93
2018-06-22T19:02:57.286Z,61.71
2018-06-22T19:05:25.744Z,61.13
2018-06-22T19:07:54.226Z,61.74
2018-06-22T19:10:22.705Z,61.86
2018-06-22T19:12:51.424Z,62.35
2018-06-22T19:15:20.022Z,62.68
2018-06-22T19:17:49.303Z,61.86
2018-06-22T19:20:18.602Z,62.18
2018-06-22T19:22:47.140Z,63.09
2018-06-22T19:25:15.570Z,63.17
2018-06-22T19:27:43.990Z,62.91
2018-06-22T19:30:12.520Z,62.75
2018-06-22T19:32:41.182Z,63.20
2018-06-22T19:35:12.626Z,63.93
2018-06-22T19:37:42.200Z,62.99
2018-06-22T19:40:10.622Z,64.04
2018-06-22T19:42:39.035Z,64.55
2018-06-22T19:45:12.814Z,64.24
2018-06-22T19:47:46.661Z,64.10
2018-06-22T19:50:20.228Z,64.62
2018-06-22T19:52:53.907Z,63.65
2018-06-22T19:55:22.324Z,63.42
2018-06-22T19:57:51.150Z,63.01
2018-06-22T20:00:19.625Z,62.54
2018-06-22T20:02:48.067Z,63.50
2018-06-22T20:05:16.527Z,63.78
2018-06-22T20:07:44.940Z,64.21
2018-06-22T20:10:13.403Z,63.21
2018-06-22T20:12:41.819Z,63.95
2018-06-22T20:15:10.360Z,64.24
2018-06-22T20:17:38.815Z,64.57
2018-06-22T20:20:07.363Z,64.59
2018-06-22T20:22:35.842Z,64.70
2018-06-22T20:25:09.672Z,64.69
2018-06-22T20:27:38.149Z,65.88
2018-06-22T20:30:07.077Z,65.33
2018-06-22T20:32:35.477Z,65.29
2018-06-22T20:35:09.172Z,65.17
2018-06-22T20:37:43.459Z,65.67
2018-06-22T20:40:17.182Z,65.39
2018-06-22T20:42:52.652Z,64.97
2018-06-22T20:45:26.211Z,65.35
2018-06-22T20:47:59.878Z,64.79
2018-06-22T20:50:33.880Z,64.26
2018-06-22T20:53:03.289Z,65.09
2018-06-22T20:55:32.332Z,65.19
2018-06-22T20:58:00.798Z,64.61
2018-06-22T21:00:29.343Z,64.23
2018-06-22T21:02:58.309Z,64.66
2018-06-22T21:05:26.812Z,65.59
2018-06-22T21:07:55.537Z,65.90
2018-06-22T21:10:24.712Z,65.55
2018-06-22T21:12:53.178Z,66.03
2018-06-22T21:15:21.553Z,66.27
2018-06-22T21:17:50.211Z,66.36
2018-06-22T21:20:18.670Z,67.19
2018-06-22T21:22:47.170Z,66.41
2018-06-22T21:25:15.614Z,66.92
2018-06-22T21:27:49.512Z,66.96
2018-06-22T21:30:24.137Z,67.02
2018-06-22T21:32:57.923Z,67.73
2018-06-22T21:35:31.671Z,67.42
2018-06-22T21:38:05.397Z,66.72
2018-06-22T21:40:34.212Z,68.00
2018-06-22T21:43:02.712Z,68.01
2018-06-22T21:45:31.126Z,68.87
2018-06-22T21:47:59.612Z,69.09
2018-06-22T21:50:28.070Z,68.17
2018-06-22T21:52:56.913Z,68.86
2018-06-22T21:55:25.681Z,69.71
2018-06-22T21:57:54.352Z,68.85
2018-06-22T22:00:31.138Z,68.68
2018-06-22T22:03:01.217Z,68.54
2018-06-22T22:05:30.417Z,69.29
2018-06-22T22:08:00.348Z,69.13
2018-06-22T22:10:33.953Z,69.57
2018-06-22T22:13:02.423Z,69.48
2018-06-22T22:15:30.894Z,70.73
2018-06-22T22:17:59.521Z,70.22
2018-06-22T22:20:27.942Z,70.26
2018-06-22T22:22:56.355Z,69.65
2018-06-22T22:25:24.921Z,70.23
2018-06-22T22:27:53.991Z,70.58
2018-06-22T22:30:22.409Z,69.84
2018-06-22T22:32:50.900Z,70.84
2018-06-22T22:35:19.340Z,70.74
2018-06-22T22:37:47.827Z,70.83
2018-06-22T22:40:16.261Z,71.34
2018-06-22T22:42:44.732Z,70.88
2018-06-22T22:45:13.188Z,70.72
2018-06-22T22:47:41.635Z,70.87
2018-06-22T22:50:10.060Z,70.32
2018-06-22T22:52:38.517Z,71.05
2018-06-22T22:55:06.962Z,70.93
2018-06-22T22:57:35.421Z,70.27
2018-06-22T23:00:04.009Z,70.75
2018-06-22T23:02:32.451Z,72.06
2018-06-22T23:05:01.012Z,72.23
2018-06-22T23:07:29.436Z,71.31
2018-06-22T23:09:57.926Z,71.85
2018-06-22T23:12:26.457Z,71.97
2018-06-22T23:14:54.923Z,72.12
2018-06-22T23:17:23.436Z,72.32
2018-06-22T23:19:51.942Z,72.36
2018-06-22T23:22:30.348Z,72.43
2018-06-22T23:24:58.828Z,72.94
2018-06-22T23:27:27.351Z,72.03
2018-06-22T23:29:55.762Z,72.57
2018-06-22T23:32:24.221Z,72.54
2018-06-22T23:34:53.515Z,72.72
2018-06-22T23:37:21.980Z,72.01
2018-06-22T23:39:50.403Z,71.94
2018-06-22T23:42:18.843Z,71.88
2018-06-22T23:44:47.251Z,71.38
2018-06-22T23:47:15.743Z,72.30
2018-06-22T23:49:44.143Z,71.99
2018-06-22T23:52:12.562Z,72.35
2018-06-22T23:54:40.999Z,71.20
2018-06-22T23:57:09.485Z,71.96
2018-06-22T23:59:37.923Z,72.35
